Estación Meteorológica Peña el Pijo (Robertgarden) [ 07/19/24 11:30:58 CEST ]

Fecha Hora Presion(HPa) Temp (°C) Humedad % Rocio (°C) Viento ( m/s) Direccion Lluvia 1Hora(mm) Lluvia 24H(mm) LLuvia Total(mm)
2011-Nov-02 01:01:18 1010.100 6.8 89 5.1         146.59
2011-Nov-02 02:01:50 1009.200 6.3 90 4.8         146.59
2011-Nov-02 03:03:50 1008.900 6.0 91 4.7         146.59
2011-Nov-02 04:01:46 1008.500 5.4 91 4.0         146.59
2011-Nov-02 05:01:43 1008.100 4.8 91 3.5         146.59
2011-Nov-02 06:03:15 1007.700 4.1 92 2.9         146.59
2011-Nov-02 07:01:16 1007.400 3.8 92 2.6         146.59
2011-Nov-02 08:01:11 1007.000 5.1 93 4.0         146.59
2011-Nov-02 09:01:16 1007.400 6.8 93 5.8         146.59
2011-Nov-02 10:01:16 1006.700 8.4 94 7.5         146.59
2011-Nov-02 11:01:17 1006.000 10.8 91 9.4         146.59
2011-Nov-02 12:01:10 1005.900 12.4 84 9.8         146.59
2011-Nov-02 13:01:16 1005.500 13.4 83 10.5         146.59
2011-Nov-02 14:01:14 1005.300 13.6 82 10.6         146.59
2011-Nov-02 15:01:16 1004.400 14.5 75 10.1         146.59
2011-Nov-02 16:01:14 1004.200 14.1 78 10.3         146.59
2011-Nov-02 17:01:19 1003.400 14.9 76 10.7         146.59
2011-Nov-02 18:01:11 1003.500 12.4 81 9.2         146.59
2011-Nov-02 19:01:13 1003.400 10.8 84 8.2         146.59
2011-Nov-02 20:01:19 1003.200 9.5 87 7.4         146.59
2011-Nov-02 21:01:12 1002.500 8.9 89 7.2         146.59
2011-Nov-02 22:01:13 1002.800 8.8 89 7.1         146.59
2011-Nov-02 23:01:14 1002.600 8.9 90 7.4         146.59

Temperatura Máxima:14°    Temperatura Mínima:
Presión Máxima:1010.100 Hpa    Presión Mínima:1002.500 Hpa


Volver